sensor_id;sensor_type;location;lat;lon;timestamp;P1;durP1;ratioP1;P2;durP2;ratioP2
67433;SDS011;54305;47.950;6.572;2024-01-30T00:02:23;2.97;;;1.67;;
67433;SDS011;54305;47.950;6.572;2024-01-30T00:04:48;2.85;;;1.55;;
67433;SDS011;54305;47.950;6.572;2024-01-30T00:07:14;1.60;;;1.30;;
67433;SDS011;54305;47.950;6.572;2024-01-30T00:09:39;3.87;;;1.40;;
67433;SDS011;54305;47.950;6.572;2024-01-30T00:12:05;2.30;;;1.50;;
67433;SDS011;54305;47.950;6.572;2024-01-30T00:14:31;4.00;;;1.70;;
67433;SDS011;54305;47.950;6.572;2024-01-30T00:16:56;2.95;;;1.58;;
67433;SDS011;54305;47.950;6.572;2024-01-30T00:19:21;4.53;;;2.20;;
67433;SDS011;54305;47.950;6.572;2024-01-30T00:21:47;3.58;;;1.73;;
67433;SDS011;54305;47.950;6.572;2024-01-30T00:24:12;3.23;;;1.70;;
67433;SDS011;54305;47.950;6.572;2024-01-30T00:26:37;3.10;;;1.60;;
67433;SDS011;54305;47.950;6.572;2024-01-30T00:29:03;5.20;;;1.70;;
67433;SDS011;54305;47.950;6.572;2024-01-30T00:31:28;3.30;;;1.43;;
67433;SDS011;54305;47.950;6.572;2024-01-30T00:33:54;3.65;;;2.10;;
67433;SDS011;54305;47.950;6.572;2024-01-30T00:36:19;6.10;;;2.03;;
67433;SDS011;54305;47.950;6.572;2024-01-30T00:38:44;3.47;;;2.07;;
67433;SDS011;54305;47.950;6.572;2024-01-30T00:41:09;5.03;;;1.85;;
67433;SDS011;54305;47.950;6.572;2024-01-30T00:43:35;3.73;;;2.13;;
67433;SDS011;54305;47.950;6.572;2024-01-30T00:46:00;2.50;;;1.70;;
67433;SDS011;54305;47.950;6.572;2024-01-30T00:48:26;2.75;;;1.75;;
67433;SDS011;54305;47.950;6.572;2024-01-30T00:50:51;2.83;;;1.77;;
67433;SDS011;54305;47.950;6.572;2024-01-30T00:53:16;3.23;;;2.00;;
67433;SDS011;54305;47.950;6.572;2024-01-30T00:55:41;5.10;;;1.73;;
67433;SDS011;54305;47.950;6.572;2024-01-30T00:58:07;5.70;;;2.05;;
67433;SDS011;54305;47.950;6.572;2024-01-30T01:00:32;2.60;;;2.00;;
67433;SDS011;54305;47.950;6.572;2024-01-30T01:03:00;4.20;;;1.80;;
67433;SDS011;54305;47.950;6.572;2024-01-30T01:05:25;4.10;;;2.10;;
67433;SDS011;54305;47.950;6.572;2024-01-30T01:07:51;5.50;;;2.10;;
67433;SDS011;54305;47.950;6.572;2024-01-30T01:10:16;3.58;;;2.13;;
67433;SDS011;54305;47.950;6.572;2024-01-30T01:12:42;4.18;;;2.30;;
67433;SDS011;54305;47.950;6.572;2024-01-30T01:15:07;3.80;;;2.10;;
67433;SDS011;54305;47.950;6.572;2024-01-30T01:17:34;2.90;;;1.85;;
67433;SDS011;54305;47.950;6.572;2024-01-30T01:20:00;5.25;;;2.70;;
67433;SDS011;54305;47.950;6.572;2024-01-30T01:22:25;3.65;;;2.20;;
67433;SDS011;54305;47.950;6.572;2024-01-30T01:24:50;4.85;;;2.30;;
67433;SDS011;54305;47.950;6.572;2024-01-30T01:27:15;4.47;;;2.60;;
67433;SDS011;54305;47.950;6.572;2024-01-30T01:29:41;4.68;;;2.20;;
67433;SDS011;54305;47.950;6.572;2024-01-30T01:32:06;4.80;;;2.70;;
67433;SDS011;54305;47.950;6.572;2024-01-30T01:34:31;3.85;;;2.00;;
67433;SDS011;54305;47.950;6.572;2024-01-30T01:36:57;4.23;;;2.47;;
67433;SDS011;54305;47.950;6.572;2024-01-30T01:39:22;4.60;;;2.60;;
67433;SDS011;54305;47.950;6.572;2024-01-30T01:41:48;3.58;;;2.40;;
67433;SDS011;54305;47.950;6.572;2024-01-30T01:44:13;5.13;;;2.67;;
67433;SDS011;54305;47.950;6.572;2024-01-30T01:46:39;4.72;;;2.47;;
67433;SDS011;54305;47.950;6.572;2024-01-30T01:49:04;4.70;;;2.30;;
67433;SDS011;54305;47.950;6.572;2024-01-30T01:51:31;4.05;;;2.45;;
67433;SDS011;54305;47.950;6.572;2024-01-30T01:53:56;4.20;;;2.58;;
67433;SDS011;54305;47.950;6.572;2024-01-30T01:56:22;5.70;;;2.20;;
67433;SDS011;54305;47.950;6.572;2024-01-30T01:58:48;4.47;;;2.40;;
67433;SDS011;54305;47.950;6.572;2024-01-30T02:01:14;3.15;;;1.98;;
67433;SDS011;54305;47.950;6.572;2024-01-30T02:03:41;4.95;;;2.25;;
67433;SDS011;54305;47.950;6.572;2024-01-30T02:06:06;4.22;;;2.10;;
67433;SDS011;54305;47.950;6.572;2024-01-30T02:08:32;4.90;;;2.57;;
67433;SDS011;54305;47.950;6.572;2024-01-30T02:10:57;4.63;;;2.30;;
67433;SDS011;54305;47.950;6.572;2024-01-30T02:13:23;3.17;;;2.33;;
67433;SDS011;54305;47.950;6.572;2024-01-30T02:15:51;4.17;;;2.43;;
67433;SDS011;54305;47.950;6.572;2024-01-30T02:18:16;5.32;;;2.45;;
67433;SDS011;54305;47.950;6.572;2024-01-30T02:20:41;3.50;;;2.03;;
67433;SDS011;54305;47.950;6.572;2024-01-30T02:23:08;4.63;;;2.33;;
67433;SDS011;54305;47.950;6.572;2024-01-30T02:25:36;5.65;;;2.05;;
67433;SDS011;54305;47.950;6.572;2024-01-30T02:28:01;5.90;;;2.28;;
67433;SDS011;54305;47.950;6.572;2024-01-30T02:30:27;4.70;;;2.20;;
67433;SDS011;54305;47.950;6.572;2024-01-30T02:32:52;4.23;;;2.40;;
67433;SDS011;54305;47.950;6.572;2024-01-30T02:35:17;3.27;;;2.10;;
67433;SDS011;54305;47.950;6.572;2024-01-30T02:37:42;5.13;;;1.90;;
67433;SDS011;54305;47.950;6.572;2024-01-30T02:40:08;2.97;;;1.80;;
67433;SDS011;54305;47.950;6.572;2024-01-30T02:42:33;3.42;;;1.77;;
67433;SDS011;54305;47.950;6.572;2024-01-30T02:44:58;6.80;;;1.90;;
67433;SDS011;54305;47.950;6.572;2024-01-30T02:47:24;4.93;;;2.37;;
67433;SDS011;54305;47.950;6.572;2024-01-30T02:49:49;5.60;;;2.47;;
67433;SDS011;54305;47.950;6.572;2024-01-30T02:52:14;4.43;;;2.10;;
67433;SDS011;54305;47.950;6.572;2024-01-30T02:54:39;2.87;;;2.47;;
67433;SDS011;54305;47.950;6.572;2024-01-30T02:57:05;2.40;;;1.80;;
67433;SDS011;54305;47.950;6.572;2024-01-30T02:59:30;3.93;;;2.20;;
67433;SDS011;54305;47.950;6.572;2024-01-30T03:01:58;4.25;;;2.25;;
67433;SDS011;54305;47.950;6.572;2024-01-30T03:04:23;3.73;;;2.17;;
67433;SDS011;54305;47.950;6.572;2024-01-30T03:06:48;4.80;;;2.37;;
67433;SDS011;54305;47.950;6.572;2024-01-30T03:09:15;3.60;;;2.20;;
67433;SDS011;54305;47.950;6.572;2024-01-30T03:11:40;6.53;;;2.55;;
67433;SDS011;54305;47.950;6.572;2024-01-30T03:14:05;5.27;;;2.13;;
67433;SDS011;54305;47.950;6.572;2024-01-30T03:16:30;5.13;;;2.33;;
67433;SDS011;54305;47.950;6.572;2024-01-30T03:18:56;2.93;;;1.90;;
67433;SDS011;54305;47.950;6.572;2024-01-30T03:21:21;4.07;;;2.10;;
67433;SDS011;54305;47.950;6.572;2024-01-30T03:23:46;3.40;;;1.95;;
67433;SDS011;54305;47.950;6.572;2024-01-30T03:26:12;5.27;;;2.50;;
67433;SDS011;54305;47.950;6.572;2024-01-30T03:28:37;4.18;;;2.13;;
67433;SDS011;54305;47.950;6.572;2024-01-30T03:31:02;4.47;;;2.00;;
67433;SDS011;54305;47.950;6.572;2024-01-30T03:33:28;4.50;;;2.10;;
67433;SDS011;54305;47.950;6.572;2024-01-30T03:35:53;4.57;;;2.23;;
67433;SDS011;54305;47.950;6.572;2024-01-30T03:38:18;3.37;;;1.80;;
67433;SDS011;54305;47.950;6.572;2024-01-30T03:40:44;3.95;;;2.15;;
67433;SDS011;54305;47.950;6.572;2024-01-30T03:43:09;4.23;;;1.87;;
67433;SDS011;54305;47.950;6.572;2024-01-30T03:45:34;4.63;;;1.92;;
67433;SDS011;54305;47.950;6.572;2024-01-30T03:47:59;4.87;;;2.30;;
67433;SDS011;54305;47.950;6.572;2024-01-30T03:50:25;3.00;;;1.77;;
67433;SDS011;54305;47.950;6.572;2024-01-30T03:52:50;4.13;;;2.17;;
67433;SDS011;54305;47.950;6.572;2024-01-30T03:55:15;6.23;;;2.20;;
67433;SDS011;54305;47.950;6.572;2024-01-30T03:57:40;3.27;;;1.80;;
67433;SDS011;54305;47.950;6.572;2024-01-30T04:00:06;3.60;;;2.03;;
67433;SDS011;54305;47.950;6.572;2024-01-30T04:02:31;4.57;;;2.30;;
67433;SDS011;54305;47.950;6.572;2024-01-30T04:04:56;4.87;;;2.53;;
67433;SDS011;54305;47.950;6.572;2024-01-30T04:07:21;6.57;;;2.50;;
67433;SDS011;54305;47.950;6.572;2024-01-30T04:09:47;3.70;;;2.10;;
67433;SDS011;54305;47.950;6.572;2024-01-30T04:12:12;4.47;;;2.40;;
67433;SDS011;54305;47.950;6.572;2024-01-30T04:14:38;3.27;;;2.00;;
67433;SDS011;54305;47.950;6.572;2024-01-30T04:17:03;3.47;;;1.92;;
67433;SDS011;54305;47.950;6.572;2024-01-30T04:19:28;4.83;;;1.90;;
67433;SDS011;54305;47.950;6.572;2024-01-30T04:21:53;4.87;;;2.30;;
67433;SDS011;54305;47.950;6.572;2024-01-30T04:24:19;6.17;;;2.50;;
67433;SDS011;54305;47.950;6.572;2024-01-30T04:26:44;4.00;;;2.50;;
67433;SDS011;54305;47.950;6.572;2024-01-30T04:29:09;4.50;;;2.30;;
67433;SDS011;54305;47.950;6.572;2024-01-30T04:31:36;3.63;;;1.90;;
67433;SDS011;54305;47.950;6.572;2024-01-30T04:34:01;5.28;;;2.47;;
67433;SDS011;54305;47.950;6.572;2024-01-30T04:36:26;4.97;;;2.60;;
67433;SDS011;54305;47.950;6.572;2024-01-30T04:38:51;7.50;;;2.70;;
67433;SDS011;54305;47.950;6.572;2024-01-30T04:41:17;5.03;;;2.17;;
67433;SDS011;54305;47.950;6.572;2024-01-30T04:43:42;3.73;;;2.07;;
67433;SDS011;54305;47.950;6.572;2024-01-30T04:46:07;5.80;;;2.25;;
67433;SDS011;54305;47.950;6.572;2024-01-30T04:48:32;4.77;;;2.07;;
67433;SDS011;54305;47.950;6.572;2024-01-30T04:50:58;4.13;;;2.17;;
67433;SDS011;54305;47.950;6.572;2024-01-30T04:53:23;4.97;;;2.60;;
67433;SDS011;54305;47.950;6.572;2024-01-30T04:55:48;5.47;;;2.72;;
67433;SDS011;54305;47.950;6.572;2024-01-30T04:58:13;4.30;;;2.47;;
67433;SDS011;54305;47.950;6.572;2024-01-30T05:00:39;5.77;;;2.40;;
67433;SDS011;54305;47.950;6.572;2024-01-30T05:03:04;4.47;;;2.10;;
67433;SDS011;54305;47.950;6.572;2024-01-30T05:05:29;6.40;;;3.30;;
67433;SDS011;54305;47.950;6.572;2024-01-30T05:07:54;3.87;;;2.33;;
67433;SDS011;54305;47.950;6.572;2024-01-30T05:10:20;5.60;;;2.78;;
67433;SDS011;54305;47.950;6.572;2024-01-30T05:12:45;5.63;;;2.53;;
67433;SDS011;54305;47.950;6.572;2024-01-30T05:15:10;4.47;;;2.33;;
67433;SDS011;54305;47.950;6.572;2024-01-30T05:17:35;7.47;;;2.77;;
67433;SDS011;54305;47.950;6.572;2024-01-30T05:20:01;4.73;;;2.47;;
67433;SDS011;54305;47.950;6.572;2024-01-30T05:22:26;4.60;;;2.57;;
67433;SDS011;54305;47.950;6.572;2024-01-30T05:24:51;5.25;;;2.40;;
67433;SDS011;54305;47.950;6.572;2024-01-30T05:27:16;5.20;;;2.78;;
67433;SDS011;54305;47.950;6.572;2024-01-30T05:29:42;4.63;;;2.27;;
67433;SDS011;54305;47.950;6.572;2024-01-30T05:32:07;4.93;;;2.90;;
67433;SDS011;54305;47.950;6.572;2024-01-30T05:34:32;4.70;;;2.97;;
67433;SDS011;54305;47.950;6.572;2024-01-30T05:36:58;3.88;;;2.28;;
67433;SDS011;54305;47.950;6.572;2024-01-30T05:39:23;5.10;;;2.57;;
67433;SDS011;54305;47.950;6.572;2024-01-30T05:41:48;4.57;;;2.73;;
67433;SDS011;54305;47.950;6.572;2024-01-30T05:44:13;4.63;;;2.63;;
67433;SDS011;54305;47.950;6.572;2024-01-30T05:46:39;4.60;;;2.83;;
67433;SDS011;54305;47.950;6.572;2024-01-30T05:49:04;5.07;;;2.70;;
67433;SDS011;54305;47.950;6.572;2024-01-30T05:51:29;6.15;;;2.30;;
67433;SDS011;54305;47.950;6.572;2024-01-30T05:53:54;4.43;;;2.57;;
67433;SDS011;54305;47.950;6.572;2024-01-30T05:56:20;4.87;;;3.07;;
67433;SDS011;54305;47.950;6.572;2024-01-30T05:58:45;7.90;;;3.40;;
67433;SDS011;54305;47.950;6.572;2024-01-30T06:01:10;5.72;;;2.80;;
67433;SDS011;54305;47.950;6.572;2024-01-30T06:03:36;4.60;;;2.58;;
67433;SDS011;54305;47.950;6.572;2024-01-30T06:06:01;4.43;;;2.70;;
67433;SDS011;54305;47.950;6.572;2024-01-30T06:08:26;8.07;;;2.77;;
67433;SDS011;54305;47.950;6.572;2024-01-30T06:10:51;3.67;;;2.43;;
67433;SDS011;54305;47.950;6.572;2024-01-30T06:13:17;5.30;;;3.30;;
67433;SDS011;54305;47.950;6.572;2024-01-30T06:15:42;5.80;;;3.22;;
67433;SDS011;54305;47.950;6.572;2024-01-30T06:18:07;4.33;;;2.60;;
67433;SDS011;54305;47.950;6.572;2024-01-30T06:20:33;4.70;;;2.40;;
67433;SDS011;54305;47.950;6.572;2024-01-30T06:22:58;4.67;;;2.50;;
67433;SDS011;54305;47.950;6.572;2024-01-30T06:25:24;4.50;;;2.90;;
67433;SDS011;54305;47.950;6.572;2024-01-30T06:27:49;4.17;;;2.70;;
67433;SDS011;54305;47.950;6.572;2024-01-30T06:30:14;5.43;;;2.83;;
67433;SDS011;54305;47.950;6.572;2024-01-30T06:32:39;7.18;;;3.33;;
67433;SDS011;54305;47.950;6.572;2024-01-30T06:35:05;7.83;;;3.10;;
67433;SDS011;54305;47.950;6.572;2024-01-30T06:37:30;7.05;;;2.92;;
67433;SDS011;54305;47.950;6.572;2024-01-30T06:39:56;7.93;;;3.53;;
67433;SDS011;54305;47.950;6.572;2024-01-30T06:42:21;4.00;;;2.73;;
67433;SDS011;54305;47.950;6.572;2024-01-30T06:44:46;6.10;;;2.65;;
67433;SDS011;54305;47.950;6.572;2024-01-30T06:47:11;6.67;;;3.07;;
67433;SDS011;54305;47.950;6.572;2024-01-30T06:49:37;5.93;;;2.97;;
67433;SDS011;54305;47.950;6.572;2024-01-30T06:52:06;5.18;;;2.67;;
67433;SDS011;54305;47.950;6.572;2024-01-30T06:54:31;5.70;;;3.25;;
67433;SDS011;54305;47.950;6.572;2024-01-30T06:56:57;5.05;;;3.05;;
67433;SDS011;54305;47.950;6.572;2024-01-30T06:59:23;6.00;;;3.30;;
67433;SDS011;54305;47.950;6.572;2024-01-30T07:01:48;6.97;;;2.93;;
67433;SDS011;54305;47.950;6.572;2024-01-30T07:04:13;8.70;;;2.80;;
67433;SDS011;54305;47.950;6.572;2024-01-30T07:06:38;9.38;;;3.00;;
67433;SDS011;54305;47.950;6.572;2024-01-30T07:09:04;6.17;;;2.93;;
67433;SDS011;54305;47.950;6.572;2024-01-30T07:11:30;6.28;;;2.67;;
67433;SDS011;54305;47.950;6.572;2024-01-30T07:13:55;4.43;;;2.60;;
67433;SDS011;54305;47.950;6.572;2024-01-30T07:16:20;5.73;;;3.00;;
67433;SDS011;54305;47.950;6.572;2024-01-30T07:18:45;5.83;;;2.63;;
67433;SDS011;54305;47.950;6.572;2024-01-30T07:21:11;4.78;;;2.90;;
67433;SDS011;54305;47.950;6.572;2024-01-30T07:23:36;8.30;;;3.10;;
67433;SDS011;54305;47.950;6.572;2024-01-30T07:26:04;5.47;;;3.38;;
67433;SDS011;54305;47.950;6.572;2024-01-30T07:28:29;5.60;;;3.05;;
67433;SDS011;54305;47.950;6.572;2024-01-30T07:30:55;5.22;;;2.92;;
67433;SDS011;54305;47.950;6.572;2024-01-30T07:33:20;8.50;;;3.60;;
67433;SDS011;54305;47.950;6.572;2024-01-30T07:35:46;4.85;;;2.80;;
67433;SDS011;54305;47.950;6.572;2024-01-30T07:38:11;6.25;;;3.17;;
67433;SDS011;54305;47.950;6.572;2024-01-30T07:40:36;5.60;;;3.60;;
67433;SDS011;54305;47.950;6.572;2024-01-30T07:43:02;5.10;;;2.70;;
67433;SDS011;54305;47.950;6.572;2024-01-30T07:45:28;4.53;;;2.70;;
67433;SDS011;54305;47.950;6.572;2024-01-30T07:47:57;4.70;;;2.53;;
67433;SDS011;54305;47.950;6.572;2024-01-30T07:50:22;6.95;;;3.22;;
67433;SDS011;54305;47.950;6.572;2024-01-30T07:52:48;5.60;;;3.00;;
67433;SDS011;54305;47.950;6.572;2024-01-30T07:55:25;5.82;;;3.17;;
67433;SDS011;54305;47.950;6.572;2024-01-30T07:58:11;5.97;;;3.30;;
67433;SDS011;54305;47.950;6.572;2024-01-30T08:00:37;4.70;;;2.72;;
67433;SDS011;54305;47.950;6.572;2024-01-30T08:03:02;6.72;;;2.75;;
67433;SDS011;54305;47.950;6.572;2024-01-30T08:05:28;5.72;;;3.50;;
67433;SDS011;54305;47.950;6.572;2024-01-30T08:07:53;5.30;;;2.90;;
67433;SDS011;54305;47.950;6.572;2024-01-30T08:10:18;8.63;;;3.17;;
67433;SDS011;54305;47.950;6.572;2024-01-30T08:12:43;5.43;;;3.40;;
67433;SDS011;54305;47.950;6.572;2024-01-30T08:15:09;4.75;;;3.22;;
67433;SDS011;54305;47.950;6.572;2024-01-30T08:17:34;4.32;;;2.80;;
67433;SDS011;54305;47.950;6.572;2024-01-30T08:20:00;5.67;;;2.90;;
67433;SDS011;54305;47.950;6.572;2024-01-30T08:22:25;5.80;;;3.23;;
67433;SDS011;54305;47.950;6.572;2024-01-30T08:24:50;6.20;;;3.20;;
67433;SDS011;54305;47.950;6.572;2024-01-30T08:27:15;5.87;;;3.53;;
67433;SDS011;54305;47.950;6.572;2024-01-30T08:29:41;6.38;;;3.50;;
67433;SDS011;54305;47.950;6.572;2024-01-30T08:32:06;7.60;;;3.20;;
67433;SDS011;54305;47.950;6.572;2024-01-30T08:34:31;5.80;;;3.45;;
67433;SDS011;54305;47.950;6.572;2024-01-30T08:36:57;8.18;;;3.55;;
67433;SDS011;54305;47.950;6.572;2024-01-30T08:39:22;5.20;;;3.22;;
67433;SDS011;54305;47.950;6.572;2024-01-30T08:41:47;7.37;;;3.17;;
67433;SDS011;54305;47.950;6.572;2024-01-30T08:44:13;7.67;;;3.00;;
67433;SDS011;54305;47.950;6.572;2024-01-30T08:46:38;6.53;;;3.40;;
67433;SDS011;54305;47.950;6.572;2024-01-30T08:49:03;6.77;;;3.10;;
67433;SDS011;54305;47.950;6.572;2024-01-30T08:51:31;5.72;;;2.85;;
67433;SDS011;54305;47.950;6.572;2024-01-30T08:53:56;6.30;;;2.70;;
67433;SDS011;54305;47.950;6.572;2024-01-30T08:56:21;5.17;;;3.10;;
67433;SDS011;54305;47.950;6.572;2024-01-30T08:58:47;6.45;;;3.33;;
67433;SDS011;54305;47.950;6.572;2024-01-30T09:01:12;6.80;;;3.20;;
67433;SDS011;54305;47.950;6.572;2024-01-30T09:03:37;5.80;;;3.40;;
67433;SDS011;54305;47.950;6.572;2024-01-30T09:06:08;5.60;;;2.78;;
67433;SDS011;54305;47.950;6.572;2024-01-30T09:08:33;7.45;;;3.60;;
67433;SDS011;54305;47.950;6.572;2024-01-30T09:10:58;8.73;;;2.80;;
67433;SDS011;54305;47.950;6.572;2024-01-30T09:13:24;7.27;;;3.30;;
67433;SDS011;54305;47.950;6.572;2024-01-30T09:15:49;4.37;;;3.07;;
67433;SDS011;54305;47.950;6.572;2024-01-30T09:18:14;8.80;;;3.47;;
67433;SDS011;54305;47.950;6.572;2024-01-30T09:20:39;5.30;;;3.53;;
67433;SDS011;54305;47.950;6.572;2024-01-30T09:23:05;7.70;;;2.90;;
67433;SDS011;54305;47.950;6.572;2024-01-30T09:25:30;8.98;;;3.40;;
67433;SDS011;54305;47.950;6.572;2024-01-30T09:27:55;5.70;;;3.40;;
67433;SDS011;54305;47.950;6.572;2024-01-30T09:30:20;7.13;;;3.70;;
67433;SDS011;54305;47.950;6.572;2024-01-30T09:32:46;9.13;;;3.80;;
67433;SDS011;54305;47.950;6.572;2024-01-30T09:35:11;6.23;;;3.37;;
67433;SDS011;54305;47.950;6.572;2024-01-30T09:37:36;7.72;;;3.95;;
67433;SDS011;54305;47.950;6.572;2024-01-30T09:40:02;6.82;;;3.60;;
67433;SDS011;54305;47.950;6.572;2024-01-30T09:42:34;8.40;;;3.95;;
67433;SDS011;54305;47.950;6.572;2024-01-30T09:45:02;6.63;;;3.60;;
67433;SDS011;54305;47.950;6.572;2024-01-30T09:47:31;6.30;;;3.50;;
67433;SDS011;54305;47.950;6.572;2024-01-30T09:49:56;7.25;;;3.80;;
67433;SDS011;54305;47.950;6.572;2024-01-30T09:52:21;6.25;;;4.07;;
67433;SDS011;54305;47.950;6.572;2024-01-30T09:54:47;6.83;;;3.83;;
67433;SDS011;54305;47.950;6.572;2024-01-30T09:57:14;8.98;;;4.57;;
67433;SDS011;54305;47.950;6.572;2024-01-30T09:59:41;5.18;;;3.58;;
67433;SDS011;54305;47.950;6.572;2024-01-30T10:02:06;6.13;;;3.42;;
67433;SDS011;54305;47.950;6.572;2024-01-30T10:04:32;7.43;;;3.67;;
67433;SDS011;54305;47.950;6.572;2024-01-30T10:06:57;7.70;;;3.90;;
67433;SDS011;54305;47.950;6.572;2024-01-30T10:09:24;5.05;;;3.47;;
67433;SDS011;54305;47.950;6.572;2024-01-30T10:11:50;4.78;;;3.38;;
67433;SDS011;54305;47.950;6.572;2024-01-30T10:14:16;5.63;;;3.10;;
67433;SDS011;54305;47.950;6.572;2024-01-30T10:16:41;6.23;;;3.17;;
67433;SDS011;54305;47.950;6.572;2024-01-30T10:19:06;7.65;;;3.85;;
67433;SDS011;54305;47.950;6.572;2024-01-30T10:21:32;5.53;;;3.30;;
67433;SDS011;54305;47.950;6.572;2024-01-30T10:23:57;5.50;;;3.60;;
67433;SDS011;54305;47.950;6.572;2024-01-30T10:26:22;5.10;;;3.50;;
67433;SDS011;54305;47.950;6.572;2024-01-30T10:28:48;7.80;;;3.87;;
67433;SDS011;54305;47.950;6.572;2024-01-30T10:31:17;5.63;;;3.40;;
67433;SDS011;54305;47.950;6.572;2024-01-30T10:33:43;6.38;;;3.70;;
67433;SDS011;54305;47.950;6.572;2024-01-30T10:36:09;6.13;;;3.40;;
67433;SDS011;54305;47.950;6.572;2024-01-30T10:38:35;5.95;;;3.38;;
67433;SDS011;54305;47.950;6.572;2024-01-30T10:41:01;7.22;;;4.03;;
67433;SDS011;54305;47.950;6.572;2024-01-30T10:43:35;6.68;;;3.50;;
67433;SDS011;54305;47.950;6.572;2024-01-30T10:46:10;7.07;;;3.88;;
67433;SDS011;54305;47.950;6.572;2024-01-30T10:48:36;8.88;;;4.03;;
67433;SDS011;54305;47.950;6.572;2024-01-30T10:51:07;6.35;;;4.18;;
67433;SDS011;54305;47.950;6.572;2024-01-30T10:53:33;6.78;;;3.33;;
67433;SDS011;54305;47.950;6.572;2024-01-30T10:55:59;5.75;;;3.58;;
67433;SDS011;54305;47.950;6.572;2024-01-30T10:58:24;6.85;;;3.83;;
67433;SDS011;54305;47.950;6.572;2024-01-30T11:00:50;7.10;;;3.90;;
67433;SDS011;54305;47.950;6.572;2024-01-30T11:03:16;5.97;;;3.78;;
67433;SDS011;54305;47.950;6.572;2024-01-30T11:05:42;7.18;;;3.88;;
67433;SDS011;54305;47.950;6.572;2024-01-30T11:08:11;5.80;;;3.72;;
67433;SDS011;54305;47.950;6.572;2024-01-30T11:10:44;5.60;;;3.72;;
67433;SDS011;54305;47.950;6.572;2024-01-30T11:13:15;8.90;;;3.63;;
67433;SDS011;54305;47.950;6.572;2024-01-30T11:15:41;5.43;;;3.47;;
67433;SDS011;54305;47.950;6.572;2024-01-30T11:18:06;7.57;;;3.50;;
67433;SDS011;54305;47.950;6.572;2024-01-30T11:20:31;8.73;;;3.97;;
67433;SDS011;54305;47.950;6.572;2024-01-30T11:22:57;9.75;;;4.35;;
67433;SDS011;54305;47.950;6.572;2024-01-30T11:25:23;5.38;;;3.65;;
67433;SDS011;54305;47.950;6.572;2024-01-30T11:27:52;6.68;;;3.47;;
67433;SDS011;54305;47.950;6.572;2024-01-30T11:30:28;5.82;;;3.70;;
67433;SDS011;54305;47.950;6.572;2024-01-30T11:35:37;5.47;;;3.47;;
67433;SDS011;54305;47.950;6.572;2024-01-30T11:38:04;7.60;;;3.30;;
67433;SDS011;54305;47.950;6.572;2024-01-30T11:40:30;6.88;;;4.05;;
67433;SDS011;54305;47.950;6.572;2024-01-30T11:42:56;7.80;;;4.18;;
67433;SDS011;54305;47.950;6.572;2024-01-30T11:45:21;8.88;;;4.22;;
67433;SDS011;54305;47.950;6.572;2024-01-30T11:47:47;9.30;;;3.88;;
67433;SDS011;54305;47.950;6.572;2024-01-30T11:50:12;5.45;;;3.50;;
67433;SDS011;54305;47.950;6.572;2024-01-30T11:52:37;5.53;;;3.65;;
67433;SDS011;54305;47.950;6.572;2024-01-30T11:55:03;8.90;;;4.47;;
67433;SDS011;54305;47.950;6.572;2024-01-30T11:57:28;7.35;;;3.85;;
67433;SDS011;54305;47.950;6.572;2024-01-30T11:59:54;5.28;;;3.50;;
67433;SDS011;54305;47.950;6.572;2024-01-30T12:02:19;4.97;;;3.00;;
67433;SDS011;54305;47.950;6.572;2024-01-30T12:04:44;4.77;;;3.17;;
67433;SDS011;54305;47.950;6.572;2024-01-30T12:07:10;4.10;;;2.73;;
67433;SDS011;54305;47.950;6.572;2024-01-30T12:09:35;6.50;;;3.33;;
67433;SDS011;54305;47.950;6.572;2024-01-30T12:12:00;5.40;;;3.00;;
67433;SDS011;54305;47.950;6.572;2024-01-30T12:14:26;7.10;;;3.50;;
67433;SDS011;54305;47.950;6.572;2024-01-30T12:16:51;5.65;;;2.88;;
67433;SDS011;54305;47.950;6.572;2024-01-30T12:19:26;4.40;;;3.05;;
67433;SDS011;54305;47.950;6.572;2024-01-30T12:21:57;4.57;;;2.75;;
67433;SDS011;54305;47.950;6.572;2024-01-30T12:24:24;6.88;;;3.70;;
67433;SDS011;54305;47.950;6.572;2024-01-30T12:26:49;7.20;;;3.28;;
67433;SDS011;54305;47.950;6.572;2024-01-30T12:29:15;6.40;;;3.42;;
67433;SDS011;54305;47.950;6.572;2024-01-30T12:31:41;4.70;;;2.97;;
67433;SDS011;54305;47.950;6.572;2024-01-30T12:34:07;6.00;;;3.58;;
67433;SDS011;54305;47.950;6.572;2024-01-30T12:36:32;5.07;;;3.43;;
67433;SDS011;54305;47.950;6.572;2024-01-30T12:38:57;6.20;;;3.17;;
67433;SDS011;54305;47.950;6.572;2024-01-30T12:41:23;8.02;;;3.28;;
67433;SDS011;54305;47.950;6.572;2024-01-30T12:43:53;4.68;;;3.00;;
67433;SDS011;54305;47.950;6.572;2024-01-30T12:46:18;5.28;;;3.00;;
67433;SDS011;54305;47.950;6.572;2024-01-30T12:48:43;10.03;;;3.90;;
67433;SDS011;54305;47.950;6.572;2024-01-30T12:51:08;4.90;;;3.10;;
67433;SDS011;54305;47.950;6.572;2024-01-30T12:53:34;4.47;;;2.95;;
67433;SDS011;54305;47.950;6.572;2024-01-30T12:55:59;5.77;;;3.17;;
67433;SDS011;54305;47.950;6.572;2024-01-30T12:58:24;4.43;;;2.95;;
67433;SDS011;54305;47.950;6.572;2024-01-30T13:00:50;5.05;;;2.92;;
67433;SDS011;54305;47.950;6.572;2024-01-30T13:03:15;6.95;;;3.35;;
67433;SDS011;54305;47.950;6.572;2024-01-30T13:05:41;5.78;;;3.05;;
67433;SDS011;54305;47.950;6.572;2024-01-30T13:08:06;6.50;;;3.70;;
67433;SDS011;54305;47.950;6.572;2024-01-30T13:10:31;4.63;;;2.80;;
67433;SDS011;54305;47.950;6.572;2024-01-30T13:12:56;5.87;;;3.90;;
67433;SDS011;54305;47.950;6.572;2024-01-30T13:15:22;6.77;;;3.87;;
67433;SDS011;54305;47.950;6.572;2024-01-30T13:17:48;7.90;;;3.95;;
67433;SDS011;54305;47.950;6.572;2024-01-30T13:20:13;7.72;;;3.65;;
67433;SDS011;54305;47.950;6.572;2024-01-30T13:22:43;5.15;;;3.45;;
67433;SDS011;54305;47.950;6.572;2024-01-30T13:25:08;9.15;;;4.10;;
67433;SDS011;54305;47.950;6.572;2024-01-30T13:27:33;7.88;;;4.03;;
67433;SDS011;54305;47.950;6.572;2024-01-30T13:29:58;6.47;;;3.63;;
67433;SDS011;54305;47.950;6.572;2024-01-30T13:32:24;5.50;;;2.90;;
67433;SDS011;54305;47.950;6.572;2024-01-30T13:34:49;4.43;;;3.20;;
67433;SDS011;54305;47.950;6.572;2024-01-30T13:37:14;8.00;;;4.13;;
67433;SDS011;54305;47.950;6.572;2024-01-30T13:39:39;7.10;;;3.83;;
67433;SDS011;54305;47.950;6.572;2024-01-30T13:42:05;6.43;;;4.10;;
67433;SDS011;54305;47.950;6.572;2024-01-30T13:44:30;9.67;;;4.20;;
67433;SDS011;54305;47.950;6.572;2024-01-30T13:46:55;7.53;;;4.00;;
67433;SDS011;54305;47.950;6.572;2024-01-30T13:49:21;7.97;;;4.72;;
67433;SDS011;54305;47.950;6.572;2024-01-30T13:51:46;7.90;;;3.92;;
67433;SDS011;54305;47.950;6.572;2024-01-30T13:54:12;7.30;;;3.92;;
67433;SDS011;54305;47.950;6.572;2024-01-30T13:56:37;6.50;;;4.07;;
67433;SDS011;54305;47.950;6.572;2024-01-30T13:59:02;7.43;;;3.80;;
67433;SDS011;54305;47.950;6.572;2024-01-30T14:01:30;6.80;;;3.83;;
67433;SDS011;54305;47.950;6.572;2024-01-30T14:03:55;7.37;;;3.47;;
67433;SDS011;54305;47.950;6.572;2024-01-30T14:06:20;5.43;;;3.30;;
67433;SDS011;54305;47.950;6.572;2024-01-30T14:08:45;6.93;;;3.60;;
67433;SDS011;54305;47.950;6.572;2024-01-30T14:11:11;8.10;;;3.53;;
67433;SDS011;54305;47.950;6.572;2024-01-30T14:13:36;9.03;;;4.00;;
67433;SDS011;54305;47.950;6.572;2024-01-30T14:16:01;6.37;;;3.37;;
67433;SDS011;54305;47.950;6.572;2024-01-30T14:18:26;6.97;;;3.47;;
67433;SDS011;54305;47.950;6.572;2024-01-30T14:20:52;13.23;;;3.67;;
67433;SDS011;54305;47.950;6.572;2024-01-30T14:23:17;5.50;;;3.80;;
67433;SDS011;54305;47.950;6.572;2024-01-30T14:25:43;5.13;;;3.17;;
67433;SDS011;54305;47.950;6.572;2024-01-30T14:28:08;7.43;;;3.67;;
67433;SDS011;54305;47.950;6.572;2024-01-30T14:30:33;7.03;;;3.43;;
67433;SDS011;54305;47.950;6.572;2024-01-30T14:32:58;6.67;;;3.20;;
67433;SDS011;54305;47.950;6.572;2024-01-30T14:35:23;5.50;;;3.63;;
67433;SDS011;54305;47.950;6.572;2024-01-30T14:37:49;5.37;;;3.17;;
67433;SDS011;54305;47.950;6.572;2024-01-30T14:40:14;8.50;;;3.50;;
67433;SDS011;54305;47.950;6.572;2024-01-30T14:42:39;7.23;;;3.77;;